createdAt,value
2018-06-01T00:14:53.830Z,98249.92
2018-06-01T03:45:53.717Z,98166.34
2018-06-01T03:48:21.982Z,98173.25
2018-06-01T03:50:51.059Z,98178.02
2018-06-01T03:53:20.097Z,98184.81
2018-06-01T03:55:48.381Z,98181.80
2018-06-01T03:58:16.671Z,98178.73
2018-06-01T04:00:44.962Z,98182.44
2018-06-01T04:03:13.255Z,98191.64
2018-06-01T04:05:43.316Z,98194.74
2018-06-01T04:08:11.577Z,98204.53
2018-06-01T04:10:39.874Z,98219.73
2018-06-01T04:13:08.177Z,98220.34
2018-06-01T04:15:36.638Z,98223.92
2018-06-01T04:18:04.913Z,98224.28
2018-06-01T04:20:33.313Z,98232.27
2018-06-01T04:23:01.585Z,98229.92
2018-06-01T04:25:29.907Z,98238.98
2018-06-01T04:27:58.238Z,98242.84
2018-06-01T04:30:26.511Z,98247.62
2018-06-01T04:32:54.904Z,98254.19
2018-06-01T04:35:23.301Z,98256.84
2018-06-01T04:37:51.574Z,98259.48
2018-06-01T04:40:19.869Z,98260.98
2018-06-01T04:42:48.153Z,98269.28
2018-06-01T04:45:16.433Z,98266.91
2018-06-01T04:47:45.201Z,98273.83
2018-06-01T04:50:14.555Z,98276.88
2018-06-01T04:52:42.870Z,98284.97
2018-06-01T04:55:11.545Z,98288.72
2018-06-01T04:57:39.825Z,98289.92
2018-06-01T05:00:08.126Z,98291.66
2018-06-01T05:02:36.432Z,98285.49
2018-06-01T05:05:04.730Z,98297.24
2018-06-01T05:07:32.987Z,98293.19
2018-06-01T05:10:01.264Z,98289.76
2018-06-01T05:12:29.561Z,98295.28
2018-06-01T05:14:57.856Z,98295.98
2018-06-01T05:17:26.159Z,98301.03
2018-06-01T05:19:54.426Z,98298.73
2018-06-01T05:22:22.706Z,98309.80
2018-06-01T05:24:50.999Z,98306.80
2018-06-01T05:27:19.276Z,98304.81
2018-06-01T05:29:47.969Z,98313.72
2018-06-01T05:32:16.242Z,98314.59
2018-06-01T05:34:44.524Z,98313.16
2018-06-01T05:37:12.836Z,98317.59
2018-06-01T05:39:41.888Z,98318.33
2018-06-01T05:42:10.181Z,98317.84
2018-06-01T05:44:38.843Z,98318.16
2018-06-01T05:47:07.138Z,98319.19
2018-06-01T05:49:35.413Z,98328.00
2018-06-01T05:52:03.692Z,98324.24
2018-06-01T05:54:32.004Z,98328.21
2018-06-01T05:57:01.179Z,98321.79
2018-06-01T05:59:29.437Z,98321.52
2018-06-01T06:01:57.724Z,98323.63
2018-06-01T06:04:25.988Z,98328.06
2018-06-01T06:06:54.261Z,98331.61
2018-06-01T06:09:22.548Z,98329.23
2018-06-01T06:11:51.575Z,98334.79
2018-06-01T06:14:19.861Z,98336.29
2018-06-01T06:16:49.018Z,98335.05
2018-06-01T06:19:17.334Z,98345.50
2018-06-01T06:21:45.659Z,98343.84
2018-06-01T06:24:13.937Z,98344.98
2018-06-01T06:26:42.272Z,98352.88
2018-06-01T06:29:10.540Z,98351.48
2018-06-01T06:31:38.805Z,98356.45
2018-06-01T06:34:07.133Z,98354.43
2018-06-01T06:36:35.404Z,98355.95
2018-06-01T06:39:04.458Z,98353.20
2018-06-01T06:41:35.881Z,98357.23
2018-06-01T06:44:04.172Z,98362.45
2018-06-01T06:46:32.447Z,98356.59
2018-06-01T06:49:00.760Z,98360.30
2018-06-01T06:51:29.036Z,98362.27
2018-06-01T06:53:57.344Z,98359.94
2018-06-01T06:56:25.627Z,98358.78
2018-06-01T06:58:53.873Z,98363.14
2018-06-01T07:01:22.167Z,98367.30
2018-06-01T07:03:52.540Z,98367.69
2018-06-01T07:06:20.874Z,98366.02
2018-06-01T07:08:49.918Z,98365.48
2018-06-01T07:11:18.186Z,98365.17
2018-06-01T07:13:46.449Z,98371.58
2018-06-01T07:16:14.767Z,98370.08
2018-06-01T07:18:43.094Z,98375.02
2018-06-01T07:21:12.278Z,98374.05
2018-06-01T07:23:41.317Z,98370.94
2018-06-01T07:26:09.614Z,98368.77
2018-06-01T07:28:37.865Z,98372.42
2018-06-01T07:31:06.169Z,98373.70
2018-06-01T07:33:34.452Z,98373.43
2018-06-01T07:36:02.743Z,98367.26
2018-06-01T07:38:31.015Z,98365.05
2018-06-01T07:40:59.296Z,98374.74
2018-06-01T07:43:28.501Z,98365.61
2018-06-01T07:45:56.784Z,98363.66
2018-06-01T07:48:25.060Z,98369.11
2018-06-01T07:50:53.412Z,98361.82
2018-06-01T07:53:21.701Z,98361.41
2018-06-01T07:55:49.986Z,98366.39
2018-06-01T07:58:18.256Z,98367.38
2018-06-01T08:00:46.528Z,98364.44
2018-06-01T08:03:14.797Z,98361.41
2018-06-01T08:05:43.073Z,98364.98
2018-06-01T08:08:11.358Z,98365.56
2018-06-01T08:10:39.643Z,98371.14
2018-06-01T08:13:07.916Z,98371.53
2018-06-01T08:15:36.223Z,98381.23
2018-06-01T08:18:04.503Z,98378.95
2018-06-01T08:20:33.594Z,98375.86
2018-06-01T08:23:02.252Z,98380.47
2018-06-01T08:25:30.504Z,98383.30
2018-06-01T08:27:59.550Z,98389.50
2018-06-01T08:30:27.824Z,98387.13
2018-06-01T08:32:56.112Z,98389.42
2018-06-01T08:35:24.362Z,98396.44
2018-06-01T08:37:52.649Z,98402.88
2018-06-01T08:40:20.935Z,98400.48
2018-06-01T08:42:49.226Z,98405.34
2018-06-01T08:45:17.519Z,98408.30
2018-06-01T08:47:46.569Z,98413.16
2018-06-01T08:50:14.844Z,98406.60
2018-06-01T08:52:43.119Z,98405.02
2018-06-01T08:55:11.375Z,98413.20
2018-06-01T08:57:39.725Z,98402.95
2018-06-01T09:00:08.769Z,98407.82
2018-06-01T09:02:37.806Z,98411.95
2018-06-01T09:05:06.895Z,98412.91
2018-06-01T09:07:35.168Z,98414.31
2018-06-01T09:10:03.511Z,98410.68
2018-06-01T09:12:31.740Z,98411.35
2018-06-01T09:15:00.781Z,98416.70
2018-06-01T09:17:29.081Z,98413.98
2018-06-01T09:19:57.356Z,98417.50
2018-06-01T09:22:25.725Z,98425.06
2018-06-01T09:24:54.004Z,98418.13
2018-06-01T09:27:22.286Z,98422.52
2018-06-01T09:29:50.605Z,98419.75
2018-06-01T09:32:19.658Z,98420.21
2018-06-01T09:34:47.980Z,98419.93
2018-06-01T09:37:17.014Z,98419.00
2018-06-01T09:39:45.286Z,98418.34
2018-06-01T09:42:13.615Z,98416.92
2018-06-01T09:44:41.915Z,98417.61
2018-06-01T09:47:10.223Z,98416.05
2018-06-01T09:49:38.492Z,98426.02
2018-06-01T09:52:06.771Z,98422.92
2018-06-01T09:54:35.060Z,98424.92
2018-06-01T09:57:03.319Z,98427.10
2018-06-01T09:59:31.610Z,98425.17
2018-06-01T10:01:59.891Z,98417.11
2018-06-01T10:04:28.148Z,98419.33
2018-06-01T10:06:56.437Z,98419.60
2018-06-01T10:09:25.474Z,98422.08
2018-06-01T10:11:53.702Z,98430.06
2018-06-01T10:14:22.001Z,98426.36
2018-06-01T10:16:50.278Z,98422.05
2018-06-01T10:19:18.556Z,98416.17
2018-06-01T10:21:46.916Z,98422.78
2018-06-01T10:24:15.207Z,98422.08
2018-06-01T10:26:44.363Z,98417.61
2018-06-01T10:29:12.688Z,98414.03
2018-06-01T10:31:40.978Z,98412.30
2018-06-01T10:34:09.258Z,98415.75
2018-06-01T10:36:37.560Z,98418.43
2018-06-01T10:39:06.648Z,98422.92
2018-06-01T10:41:34.969Z,98422.52
2018-06-01T10:44:04.103Z,98411.98
2018-06-01T10:46:32.377Z,98416.91
2018-06-01T10:49:00.712Z,98414.47
2018-06-01T10:51:29.781Z,98419.50
2018-06-01T10:53:58.100Z,98417.70
2018-06-01T10:56:26.434Z,98426.95
2018-06-01T10:58:54.761Z,98430.28
2018-06-01T11:01:23.046Z,98435.52
2018-06-01T11:03:51.346Z,98438.01
2018-06-01T11:06:19.644Z,98441.36
2018-06-01T11:08:47.921Z,98446.72
2018-06-01T11:11:16.586Z,98444.67
2018-06-01T11:13:44.893Z,98437.06
2018-06-01T11:16:13.181Z,98434.84
2018-06-01T11:18:41.483Z,98433.28
2018-06-01T11:21:10.524Z,98427.76
2018-06-01T11:23:38.854Z,98429.00
2018-06-01T11:26:07.899Z,98436.53
2018-06-01T11:28:36.155Z,98432.59
2018-06-01T11:31:04.425Z,98431.18
2018-06-01T11:33:32.719Z,98419.36
2018-06-01T11:36:01.428Z,98420.47
2018-06-01T11:38:29.724Z,98426.34
2018-06-01T11:40:58.781Z,98423.90
2018-06-01T11:43:27.071Z,98428.72
2018-06-01T11:45:55.361Z,98425.91
2018-06-01T11:48:23.649Z,98424.80
2018-06-01T11:50:51.927Z,98411.15
2018-06-01T11:53:20.218Z,98416.31
2018-06-01T11:55:48.508Z,98404.11
2018-06-01T11:58:16.799Z,98401.86
2018-06-01T12:00:45.059Z,98408.46
2018-06-01T12:03:13.377Z,98401.42
2018-06-01T12:05:41.651Z,98402.48
2018-06-01T12:08:09.948Z,98406.47
2018-06-01T12:10:38.201Z,98406.75
2018-06-01T12:13:06.476Z,98387.65
2018-06-01T12:15:34.779Z,98393.72
2018-06-01T12:18:03.054Z,98399.57
2018-06-01T12:20:31.364Z,98398.48
2018-06-01T12:22:59.639Z,98393.95
2018-06-01T12:25:27.920Z,98399.78
2018-06-01T12:27:57.423Z,98401.59
2018-06-01T12:30:25.703Z,98403.86
2018-06-01T12:32:53.977Z,98402.04
2018-06-01T12:35:22.278Z,98409.80
2018-06-01T12:37:51.370Z,98407.74
2018-06-01T12:40:19.653Z,98404.41
2018-06-01T12:42:47.923Z,98409.08
2018-06-01T12:45:16.237Z,98424.30
2018-06-01T12:47:44.506Z,98438.51
2018-06-01T12:50:12.817Z,98442.30
2018-06-01T12:52:41.099Z,98446.77
2018-06-01T12:55:09.377Z,98449.72
2018-06-01T12:57:37.690Z,98443.97
2018-06-01T13:00:05.954Z,98443.88
2018-06-01T13:02:34.262Z,98446.93
2018-06-01T13:05:02.534Z,98443.53
2018-06-01T13:07:30.816Z,98445.27
2018-06-01T13:09:59.106Z,98442.94
2018-06-01T13:12:27.386Z,98446.61
2018-06-01T13:14:56.451Z,98447.68
2018-06-01T13:17:24.703Z,98453.67
2018-06-01T13:19:52.968Z,98458.77
2018-06-01T13:22:21.304Z,98466.05
2018-06-01T13:24:49.587Z,98455.55
2018-06-01T13:27:18.669Z,98460.91
2018-06-01T13:29:46.995Z,98464.80
2018-06-01T13:32:15.199Z,98473.70
2018-06-01T13:34:43.492Z,98489.28
2018-06-01T13:37:11.747Z,98483.31
2018-06-01T13:39:40.034Z,98490.02
2018-06-01T13:42:08.315Z,98492.91
2018-06-01T13:44:36.596Z,98495.66
2018-06-01T13:47:04.883Z,98490.05
2018-06-01T13:49:33.156Z,98488.27
2018-06-01T13:52:01.470Z,98481.53
2018-06-01T13:54:30.501Z,98485.13
2018-06-01T13:56:58.795Z,98476.89
2018-06-01T13:59:27.114Z,98468.43
2018-06-01T14:01:56.172Z,98470.63
2018-06-01T14:04:24.477Z,98470.25
2018-06-01T14:06:52.752Z,98470.45
2018-06-01T14:09:21.085Z,98478.55
2018-06-01T14:11:49.315Z,98476.64
2018-06-01T14:14:17.585Z,98471.92
2018-06-01T14:16:45.916Z,98471.69
2018-06-01T14:19:14.227Z,98487.36
2018-06-01T14:21:42.513Z,98476.80
2018-06-01T14:24:10.813Z,98482.24
2018-06-01T14:26:39.900Z,98479.09
2018-06-01T14:29:08.191Z,98475.84
2018-06-01T14:31:36.461Z,98473.89
2018-06-01T14:34:04.753Z,98477.18
2018-06-01T14:36:33.044Z,98476.80
2018-06-01T14:39:01.324Z,98471.06
2018-06-01T14:41:29.639Z,98468.23
2018-06-01T14:43:57.908Z,98460.97
2018-06-01T14:46:26.184Z,98457.94
2018-06-01T14:48:54.488Z,98464.57
2018-06-01T14:51:22.770Z,98455.49
2018-06-01T14:53:51.060Z,98447.75
2018-06-01T14:56:19.358Z,98447.34
2018-06-01T14:58:48.433Z,98444.91
2018-06-01T15:01:16.729Z,98443.33
2018-06-01T15:03:45.762Z,98441.97
2018-06-01T15:06:14.102Z,98443.08
2018-06-01T15:08:43.149Z,98444.80
2018-06-01T15:11:11.432Z,98451.77
2018-06-01T15:13:39.720Z,98439.86
2018-06-01T15:16:07.998Z,98434.19
2018-06-01T15:18:36.290Z,98428.66
2018-06-01T15:21:04.574Z,98423.45
2018-06-01T15:23:33.621Z,98423.19
2018-06-01T15:26:02.646Z,98425.27
2018-06-01T15:28:31.057Z,98420.95
2018-06-01T15:31:00.088Z,98417.64
2018-06-01T15:33:28.364Z,98426.56
2018-06-01T15:35:56.647Z,98423.74
2018-06-01T15:38:24.900Z,98425.02
2018-06-01T15:40:53.248Z,98428.48
2018-06-01T15:43:21.516Z,98418.38
2018-06-01T15:45:50.698Z,98421.56
2018-06-01T15:48:18.965Z,98420.80
2018-06-01T15:50:47.293Z,98419.61
2018-06-01T15:53:15.568Z,98417.42
2018-06-01T15:55:43.858Z,98420.91
2018-06-01T15:58:12.924Z,98421.42
2018-06-01T16:00:41.205Z,98427.48
2018-06-01T16:03:09.497Z,98430.63
2018-06-01T16:05:37.767Z,98434.11
2018-06-01T16:08:06.063Z,98442.59
2018-06-01T16:10:34.343Z,98440.77
2018-06-01T16:13:02.613Z,98440.36
2018-06-01T16:15:31.647Z,98429.97
2018-06-01T16:17:59.941Z,98428.03
2018-06-01T16:20:28.226Z,98436.34
2018-06-01T16:22:56.507Z,98437.69
2018-06-01T16:25:24.795Z,98432.92
2018-06-01T16:27:53.078Z,98437.29
2018-06-01T16:30:21.351Z,98438.06
2018-06-01T16:32:49.628Z,98446.28
2018-06-01T16:35:17.902Z,98444.84
2018-06-01T16:37:46.179Z,98439.27
2018-06-01T16:40:14.471Z,98443.20
2018-06-01T16:42:42.766Z,98446.16
2018-06-01T16:45:11.815Z,98449.65
2018-06-01T16:47:40.100Z,98439.98
2018-06-01T16:50:08.365Z,98438.72
2018-06-01T16:52:36.676Z,98434.85
2018-06-01T16:55:05.623Z,98429.97
2018-06-01T16:57:33.906Z,98420.57
2018-06-01T17:00:02.212Z,98418.50
2018-06-01T17:02:30.748Z,98413.66
2018-06-01T17:04:59.071Z,98412.97
2018-06-01T17:07:27.378Z,98411.74
2018-06-01T17:09:55.660Z,98421.14
2018-06-01T17:12:23.963Z,98416.97
2018-06-01T17:14:52.256Z,98419.16
2018-06-01T17:17:20.556Z,98419.38
2018-06-01T17:19:48.813Z,98419.30
2018-06-01T17:22:17.110Z,98420.63
2018-06-01T17:24:45.373Z,98421.20
2018-06-01T17:27:13.664Z,98416.05
2018-06-01T17:29:41.972Z,98426.38
2018-06-01T17:32:10.297Z,98431.48
2018-06-01T17:34:38.587Z,98437.17
2018-06-01T17:37:06.876Z,98437.52
2018-06-01T17:39:35.155Z,98442.20
2018-06-01T17:42:03.441Z,98451.20
2018-06-01T17:44:31.741Z,98444.18
2018-06-01T17:47:01.251Z,98455.36
2018-06-01T17:49:30.479Z,98454.33
2018-06-01T17:51:58.761Z,98461.89
2018-06-01T17:54:27.048Z,98461.15
2018-06-01T17:56:55.337Z,98461.23
2018-06-01T17:59:23.623Z,98461.57
2018-06-01T18:01:53.290Z,98469.63
2018-06-01T18:04:24.922Z,98468.27
2018-06-01T18:06:55.017Z,98472.25
2018-06-01T18:09:23.608Z,98472.75
2018-06-01T18:11:52.961Z,98478.86
2018-06-01T18:14:22.295Z,98480.00
2018-06-01T18:16:50.618Z,98480.92
2018-06-01T18:19:18.895Z,98479.44
2018-06-01T18:21:47.186Z,98478.83
2018-06-01T18:24:16.231Z,98480.34
2018-06-01T18:26:44.542Z,98481.38
2018-06-01T18:29:13.612Z,98495.44
2018-06-01T18:31:41.881Z,98491.55
2018-06-01T18:34:10.183Z,98499.77
2018-06-01T18:36:38.468Z,98498.62
2018-06-01T18:39:06.726Z,98506.02
2018-06-01T18:41:35.051Z,98510.09
2018-06-01T18:44:03.359Z,98507.31
2018-06-01T18:46:32.388Z,98507.06
2018-06-01T18:49:00.675Z,98517.47
2018-06-01T18:51:28.949Z,98512.95
2018-06-01T18:53:57.270Z,98509.39
2018-06-01T18:56:25.541Z,98511.91
2018-06-01T18:58:53.827Z,98512.91
2018-06-01T19:01:23.098Z,98506.40
2018-06-01T19:03:51.388Z,98512.61
2018-06-01T19:06:20.477Z,98508.33
2018-06-01T19:08:48.760Z,98505.58
2018-06-01T19:11:17.091Z,98509.88
2018-06-01T19:13:45.388Z,98508.09
2018-06-01T19:16:13.701Z,98507.80
2018-06-01T19:18:42.021Z,98513.27
2018-06-01T19:21:10.309Z,98514.94
2018-06-01T19:23:38.648Z,98521.47
2018-06-01T19:26:06.932Z,98514.35
2018-06-01T19:28:35.979Z,98519.84
2018-06-01T19:31:04.288Z,98525.02
2018-06-01T19:33:33.384Z,98522.61
2018-06-01T19:36:01.694Z,98522.71
2018-06-01T19:38:31.617Z,98523.41
2018-06-01T19:40:59.903Z,98527.98
2018-06-01T19:43:28.184Z,98527.95
2018-06-01T19:45:56.483Z,98531.00
2018-06-01T19:48:25.377Z,98530.59
2018-06-01T19:50:53.683Z,98539.41
2018-06-01T19:53:21.975Z,98537.12
2018-06-01T19:55:50.250Z,98538.33
2018-06-01T19:58:19.316Z,98533.67
2018-06-01T20:00:47.641Z,98537.78
2018-06-01T20:03:15.965Z,98532.24
2018-06-01T20:05:44.261Z,98535.69
2018-06-01T20:08:12.555Z,98540.30
2018-06-01T20:10:40.835Z,98545.39
2018-06-01T20:13:09.227Z,98546.14
2018-06-01T20:15:37.481Z,98551.45
2018-06-01T20:18:05.745Z,98551.16
2018-06-01T20:20:34.042Z,98550.73
2018-06-01T20:23:02.358Z,98553.03
2018-06-01T20:25:30.643Z,98549.56
2018-06-01T20:28:00.076Z,98550.08
2018-06-01T20:30:28.351Z,98554.80
2018-06-01T20:32:57.463Z,98562.11
2018-06-01T20:35:25.767Z,98562.19
2018-06-01T20:37:54.808Z,98563.95
2018-06-01T20:40:23.095Z,98567.00
2018-06-01T20:42:51.391Z,98563.75
2018-06-01T20:45:19.709Z,98566.70
2018-06-01T20:47:47.990Z,98568.36
2018-06-01T20:50:16.275Z,98566.41
2018-06-01T20:52:44.583Z,98574.80
2018-06-01T20:55:12.894Z,98576.41
2018-06-01T20:57:41.939Z,98579.73
2018-06-01T21:00:10.221Z,98578.86
2018-06-01T21:02:38.531Z,98587.81
2018-06-01T21:05:06.836Z,98586.21
2018-06-01T21:07:35.124Z,98583.61
2018-06-01T21:10:04.555Z,98582.17
2018-06-01T21:12:36.405Z,98577.27
2018-06-01T21:15:04.681Z,98578.52
2018-06-01T21:17:32.994Z,98578.34
2018-06-01T21:20:01.255Z,98572.47
2018-06-01T21:22:29.539Z,98567.80
2018-06-01T21:24:57.846Z,98576.14
2018-06-01T21:27:26.123Z,98575.00
2018-06-01T21:29:54.465Z,98574.75
2018-06-01T21:32:22.749Z,98579.41
2018-06-01T21:34:51.033Z,98578.42
2018-06-01T21:37:19.312Z,98572.96
2018-06-01T21:39:47.574Z,98577.41
2018-06-01T21:42:15.881Z,98578.16
2018-06-01T21:44:44.163Z,98576.96
2018-06-01T21:47:12.451Z,98578.05
2018-06-01T21:49:40.755Z,98574.42
2018-06-01T21:52:09.785Z,98577.16
2018-06-01T21:54:38.100Z,98577.81
2018-06-01T21:57:06.370Z,98570.28
2018-06-01T21:59:34.651Z,98578.02
2018-06-01T22:02:02.942Z,98579.23
2018-06-01T22:04:31.219Z,98573.70
2018-06-01T22:07:00.394Z,98577.91
2018-06-01T22:09:29.490Z,98573.27
2018-06-01T22:11:57.781Z,98568.83
2018-06-01T22:14:27.608Z,98576.34
2018-06-01T22:16:56.017Z,98573.70
2018-06-01T22:19:24.273Z,98570.38
2018-06-01T22:21:52.545Z,98570.67
2018-06-01T22:24:20.829Z,98569.05
2018-06-01T22:26:49.921Z,98567.48
2018-06-01T22:29:18.193Z,98574.86
2018-06-01T22:31:46.474Z,98574.05
2018-06-01T22:34:14.786Z,98582.45
2018-06-01T22:36:43.052Z,98576.99
2018-06-01T22:39:12.126Z,98585.38
2018-06-01T22:41:40.419Z,98581.34
2018-06-01T22:44:08.692Z,98586.19
2018-06-01T22:46:37.748Z,98579.56
2018-06-01T22:49:05.999Z,98577.47
2018-06-01T22:51:34.425Z,98579.30
2018-06-01T22:54:02.712Z,98585.70
2018-06-01T22:56:31.005Z,98581.83
2018-06-01T22:59:00.052Z,98579.11
2018-06-01T23:01:28.329Z,98574.67
2018-06-01T23:03:56.972Z,98579.73
2018-06-01T23:06:26.000Z,98588.50
2018-06-01T23:08:54.305Z,98587.87
2018-06-01T23:11:22.596Z,98585.66
2018-06-01T23:13:50.857Z,98586.68
2018-06-01T23:16:19.164Z,98592.23
2018-06-01T23:18:47.477Z,98594.72
2018-06-01T23:21:15.755Z,98590.80
2018-06-01T23:23:44.072Z,98590.94
2018-06-01T23:26:12.416Z,98593.73
2018-06-01T23:28:40.679Z,98600.89
2018-06-01T23:31:09.748Z,98599.67
2018-06-01T23:33:38.072Z,98592.74
2018-06-01T23:36:06.364Z,98599.95
2018-06-01T23:38:34.657Z,98597.13
2018-06-01T23:41:02.915Z,98600.34
2018-06-01T23:43:31.194Z,98597.38
2018-06-01T23:45:59.485Z,98590.48
2018-06-01T23:48:27.768Z,98592.98
2018-06-01T23:50:56.146Z,98590.33
2018-06-01T23:53:24.425Z,98590.42
2018-06-01T23:55:52.706Z,98582.40
2018-06-01T23:58:20.986Z,98578.72
